TAF and METAR

METAR for F3-Fb-1 Sea

EHFD 230325Z AUTO 16018KT 4400 BR BKN012/// 07/06 Q1037 W///H///
Report created 23. feb 04:25
report generated by an automatic observation system. wind 18 knots from SSE (160°) visibility 4400 meters mist broken clouds (~75% cover) at 1200 feet Temperature 7° with dewpoint at 6° (Humidity 93.35%) Pressure 1037 hPa
No TAF available for F3-Fb-1 Sea
F3-Fb-1 Sea in Netherlands at 50m

Latest 5 airports